Terminal Aerodrome Forecast
Issued by NWS

Home | Current Version | Previous Version | Text Only | Print | Product List | Glossary On
Versions: 1 2 3 4 5 6 7 8 9 10 11 12 13 14 15 16 17 18 19
000
FTUS46 KSEW 211700
TAFOLM
TAF
KOLM 211723Z 2118/2218 19010KT P6SM FEW030 SCT070 BKN150
      TEMPO 2118/2121 -SHRA SCT025 BKN050
     FM220100 19012KT P6SM -RA OVC040
     FM220400 19012KT 5SM RA BR OVC030
     FM221000 19014G20KT 3SM RA BR OVC015=

USA.gov is the U.S. government's official web portal to all federal, state and local government web resources and services.